Time;durP1;ratioP1;P1;durP2;ratioP2;P2;SDS_P1;SDS_P2;PMS_P1;PMS_P2;Temp;Humidity;BMP_temperature;BMP_pressure;BME280_temperature;BME280_humidity;BME280_pressure;Samples;Min_cycle;Max_cycle;Signal;HPM_P1;HPM_P2
2022/08/02 00:02:54;;;;;;;2.50;2.30;;;;;;;19.92;70.63;97705.25;7617241;23;20216;-69
2022/08/02 00:05:56;;;;;;;2.17;2.00;;;;;;;19.90;70.75;97705.41;7590013;23;20861;-69
2022/08/02 00:08:58;;;;;;;2.03;1.83;;;;;;;19.83;70.73;97710.69;7615239;23;20233;-68
2022/08/02 00:12:01;;;;;;;4.77;4.30;;;;;;;19.75;71.16;97721.47;7589390;23;20239;-68
2022/08/02 00:15:06;;;;;;;3.03;2.67;;;;;;;19.67;71.33;97726.03;7564406;23;20575;-69
2022/08/02 00:18:08;;;;;;;3.43;2.30;;;;;;;19.60;72.20;97717.06;7616534;23;20489;-68
2022/08/02 00:21:10;;;;;;;2.30;2.00;;;;;;;19.46;72.45;97718.66;7589244;23;20188;-69
2022/08/02 00:24:12;;;;;;;1.80;1.70;;;;;;;19.41;72.59;97723.69;7565441;23;20190;-68
2022/08/02 00:27:31;;;;;;;2.87;1.60;;;;;;;19.39;72.89;97723.03;7615534;23;20213;-69
2022/08/02 00:30:33;;;;;;;2.43;1.90;;;;;;;19.41;72.92;97729.88;7615144;23;20482;-68
2022/08/02 00:33:35;;;;;;;2.20;1.93;;;;;;;19.41;72.93;97729.03;7590424;23;20235;-69
2022/08/02 00:36:57;;;;;;;2.60;2.20;;;;;;;19.33;72.81;97724.56;7589830;23;20512;-69
2022/08/02 00:40:01;;;;;;;2.27;2.07;;;;;;;19.26;72.68;97730.81;7589137;23;20220;-69
2022/08/02 00:43:09;;;;;;;2.20;2.00;;;;;;;19.23;72.74;97741.88;7615246;23;20216;-69
2022/08/02 00:46:12;;;;;;;2.33;1.73;;;;;;;19.15;73.08;97743.59;7615212;23;20208;-69
2022/08/02 00:49:14;;;;;;;1.97;1.87;;;;;;;19.11;73.14;97744.09;7589637;23;20216;-69
2022/08/02 00:52:17;;;;;;;2.10;2.00;;;;;;;19.03;73.24;97746.81;7617140;23;20216;-69
2022/08/02 00:55:20;;;;;;;2.50;2.30;;;;;;;18.99;73.31;97748.16;7589324;23;20213;-69
2022/08/02 00:58:32;;;;;;;2.27;2.07;;;;;;;18.90;73.59;97751.88;7591455;23;20698;-69
2022/08/02 01:01:54;;;;;;;2.40;2.17;;;;;;;18.84;73.21;97758.78;7615464;23;20286;-69
2022/08/02 01:04:59;;;;;;;4.17;2.73;;;;;;;18.69;74.15;97765.81;7614570;23;20219;-68
2022/08/02 01:08:01;;;;;;;3.57;3.27;;;;;;;18.58;74.42;97766.19;7615016;23;20215;-69
2022/08/02 01:11:04;;;;;;;3.30;3.00;;;;;;;18.50;74.67;97760.84;7589769;23;20208;-69
2022/08/02 01:14:09;;;;;;;4.53;4.13;;;;;;;18.50;74.43;97776.88;7615365;23;20208;-69
2022/08/02 01:17:49;;;;;;;6.27;5.63;;;;;;;18.53;74.57;97781.88;7615288;23;20216;-69
2022/08/02 01:21:19;;;;;;;6.03;5.53;;;;;;;18.46;74.51;97783.59;7617854;23;20208;-69
2022/08/02 01:24:52;;;;;;;6.13;5.63;;;;;;;18.37;74.49;97782.72;7614870;23;20208;-68
2022/08/02 01:28:21;;;;;;;6.83;6.23;;;;;;;18.33;74.95;97792.94;7614937;23;20212;-69
2022/08/02 01:31:41;;;;;;;11.80;10.60;;;;;;;18.37;74.92;97786.25;7615880;23;20595;-69
2022/08/02 01:34:59;;;;;;;5.73;5.23;;;;;;;18.41;74.70;97786.75;7614185;23;20630;-68
2022/08/02 01:38:44;;;;;;;6.30;5.70;;;;;;;18.43;74.39;97785.59;7615001;23;20269;-68
2022/08/02 01:41:48;;;;;;;7.70;7.00;;;;;;;18.42;74.52;97789.25;7588778;23;20213;-68
2022/08/02 01:45:01;;;;;;;8.37;7.57;;;;;;;18.29;75.22;97794.28;7590622;23;20533;-68
2022/08/02 01:48:04;;;;;;;10.27;7.80;;;;;;;18.27;75.30;97790.94;7589828;23;20188;-67
2022/08/02 01:51:08;;;;;;;8.13;7.10;;;;;;;18.23;75.54;97775.44;7622179;23;20176;-68
2022/08/02 01:54:14;;;;;;;4.60;3.97;;;;;;;18.15;75.46;97767.44;7589646;23;20177;-68
2022/08/02 01:57:20;;;;;;;4.10;3.70;;;;;;;18.11;75.86;97777.59;7614832;23;20339;-68
2022/08/02 02:00:25;;;;;;;4.17;3.77;;;;;;;18.18;75.75;97775.91;7614530;23;20212;-68
2022/08/02 02:03:29;;;;;;;3.97;3.67;;;;;;;18.26;75.33;97775.09;7614507;23;20223;-68
2022/08/02 02:06:36;;;;;;;3.17;2.97;;;;;;;18.27;75.40;97772.22;7589912;23;20213;-68
2022/08/02 02:09:39;;;;;;;3.27;2.83;;;;;;;18.26;75.24;97775.09;7587601;23;20206;-68
2022/08/02 02:12:53;;;;;;;2.67;2.47;;;;;;;18.20;75.21;97765.91;7614839;23;20220;-68
2022/08/02 02:16:00;;;;;;;2.57;2.20;;;;;;;18.15;75.60;97773.59;7588506;23;20216;-68
2022/08/02 02:19:02;;;;;;;2.70;2.33;;;;;;;18.11;75.71;97763.41;7615083;23;20669;-68
2022/08/02 02:22:05;;;;;;;2.60;2.40;;;;;;;18.08;75.83;97775.25;7615088;23;20220;-68
2022/08/02 02:25:09;;;;;;;3.50;2.63;;;;;;;18.03;75.94;97788.28;7615661;23;20219;-68
2022/08/02 02:28:21;;;;;;;3.17;2.37;;;;;;;17.98;75.80;97790.63;7589669;23;20299;-68
2022/08/02 02:31:25;;;;;;;2.30;2.03;;;;;;;17.95;76.01;97788.28;7590983;23;20209;-68
2022/08/02 02:34:31;;;;;;;3.57;2.40;;;;;;;17.89;76.24;97784.44;7617763;23;20699;-68
2022/08/02 02:37:34;;;;;;;2.93;2.23;;;;;;;17.86;76.21;97787.47;7590409;23;20691;-68
2022/08/02 02:40:38;;;;;;;3.57;2.23;;;;;;;17.82;76.26;97788.78;7616697;23;20204;-68
2022/08/02 02:43:41;;;;;;;3.30;2.30;;;;;;;17.74;76.82;97786.13;7616462;23;20212;-68
2022/08/02 02:46:45;;;;;;;2.53;2.10;;;;;;;17.65;76.86;97779.94;7591128;23;20272;-68
2022/08/02 02:49:50;;;;;;;2.73;1.50;;;;;;;17.57;77.58;97779.88;7591094;23;20208;-68
2022/08/02 02:52:53;;;;;;;2.40;1.93;;;;;;;17.50;77.72;97770.03;7590487;23;20212;-68
2022/08/02 02:55:56;;;;;;;1.70;1.60;;;;;;;17.45;77.78;97770.53;7617302;23;20680;-69
2022/08/02 02:59:03;;;;;;;1.53;1.43;;;;;;;17.40;77.98;97778.19;7590275;23;20263;-68
2022/08/02 03:02:06;;;;;;;1.40;1.20;;;;;;;17.37;78.06;97775.81;7616511;23;20286;-68
2022/08/02 03:05:09;;;;;;;3.17;1.57;;;;;;;17.36;77.67;97770.69;7616040;23;20677;-68
2022/08/02 03:08:12;;;;;;;1.40;1.30;;;;;;;17.31;78.08;97777.31;7615799;23;20220;-70
2022/08/02 03:11:14;;;;;;;2.40;1.33;;;;;;;17.34;77.88;97781.50;7589951;23;20212;-70
2022/08/02 03:14:16;;;;;;;1.73;1.63;;;;;;;17.29;77.70;97791.81;7591089;23;20638;-71
2022/08/02 03:17:19;;;;;;;1.83;1.57;;;;;;;17.24;77.56;97786.16;7590524;23;20212;-68
2022/08/02 03:20:24;;;;;;;1.83;1.73;;;;;;;17.27;77.80;97783.97;7616536;23;20220;-67
2022/08/02 03:23:26;;;;;;;2.17;1.70;;;;;;;17.22;77.69;97788.13;7590707;23;20554;-67
2022/08/02 03:26:28;;;;;;;1.60;1.50;;;;;;;17.05;78.19;97792.59;7591199;23;20668;-68
2022/08/02 03:29:30;;;;;;;1.60;1.50;;;;;;;16.97;78.47;97795.19;7615806;23;20208;-68
2022/08/02 03:32:37;;;;;;;2.07;1.43;;;;;;;16.88;79.06;97801.50;7590847;23;20716;-68
2022/08/02 03:35:41;;;;;;;1.47;1.37;;;;;;;16.73;79.61;97795.94;7615519;23;20215;-68
2022/08/02 03:38:45;;;;;;;2.07;1.70;;;;;;;16.72;79.81;97798.75;7616561;23;20217;-68
2022/08/02 03:41:48;;;;;;;1.53;1.40;;;;;;;16.77;79.70;97799.94;7616621;23;20215;-68
2022/08/02 03:44:52;;;;;;;2.73;1.47;;;;;;;16.75;79.86;97801.13;7615976;23;20677;-68
2022/08/02 03:47:55;;;;;;;1.57;1.47;;;;;;;16.67;80.01;97809.06;7616399;23;20854;-68
2022/08/02 03:51:00;;;;;;;1.90;1.70;;;;;;;16.56;80.09;97818.97;7616891;23;20608;-67
2022/08/02 03:54:02;;;;;;;1.50;1.40;;;;;;;16.58;80.47;97824.13;7614430;23;20204;-67
2022/08/02 03:57:08;;;;;;;1.90;1.30;;;;;;;16.64;80.08;97826.19;7615994;23;20180;-68
2022/08/02 04:00:16;;;;;;;1.40;1.30;;;;;;;16.68;80.17;97837.38;7590510;23;20184;-68
2022/08/02 04:03:19;;;;;;;1.57;1.47;;;;;;;16.72;79.88;97836.91;7614056;23;20630;-68
2022/08/02 04:06:21;;;;;;;1.23;1.10;;;;;;;16.83;79.51;97841.13;7615051;23;20557;-68
2022/08/02 04:09:29;;;;;;;1.10;1.10;;;;;;;16.93;79.33;97845.34;7615240;23;20211;-68
2022/08/02 04:12:31;;;;;;;1.67;1.10;;;;;;;17.02;79.33;97843.56;7589353;23;20224;-68
2022/08/02 04:15:33;;;;;;;1.17;1.10;;;;;;;17.08;79.24;97847.41;7613612;23;20207;-68
2022/08/02 04:18:41;;;;;;;1.30;1.20;;;;;;;17.09;79.23;97847.25;7588827;23;20224;-68
2022/08/02 04:21:47;;;;;;;2.30;1.20;;;;;;;17.17;79.02;97844.63;7588831;23;20246;-68
2022/08/02 04:24:59;;;;;;;1.60;1.10;;;;;;;17.25;79.21;97849.16;7615299;23;20683;-67
2022/08/02 04:28:02;;;;;;;1.67;1.07;;;;;;;17.39;78.63;97845.03;7614052;23;20291;-68
2022/08/02 04:31:20;;;;;;;1.43;1.33;;;;;;;17.48;78.71;97847.56;7615234;23;20287;-68
2022/08/02 04:34:22;;;;;;;1.70;1.47;;;;;;;17.59;78.25;97857.94;7616382;23;20547;-68
2022/08/02 04:37:25;;;;;;;0.93;0.93;;;;;;;17.67;78.05;97858.00;7614759;23;20212;-68
2022/08/02 04:40:28;;;;;;;1.10;1.03;;;;;;;17.75;78.27;97861.69;7615172;23;20215;-68
2022/08/02 04:43:30;;;;;;;1.80;1.33;;;;;;;17.85;77.95;97863.22;7614867;23;20221;-68
2022/08/02 04:46:33;;;;;;;1.03;1.00;;;;;;;17.93;77.76;97849.88;7615130;23;20674;-68
2022/08/02 04:49:35;;;;;;;1.70;0.97;;;;;;;17.92;77.96;97853.53;7608683;23;20224;-68
2022/08/02 04:52:37;;;;;;;1.43;1.33;;;;;;;17.90;78.31;97863.56;7589124;23;20228;-68
2022/08/02 04:55:46;;;;;;;1.73;1.50;;;;;;;17.86;78.31;97864.06;7614219;23;20672;-68
2022/08/02 04:58:48;;;;;;;2.00;1.10;;;;;;;17.81;78.81;97861.88;7613696;23;20587;-67
2022/08/02 05:01:50;;;;;;;1.80;1.27;;;;;;;17.81;79.31;97858.38;7616336;23;20215;-68
2022/08/02 05:04:52;;;;;;;1.30;1.20;;;;;;;17.86;78.72;97875.56;7614380;23;20208;-68
2022/08/02 05:07:54;;;;;;;1.20;1.10;;;;;;;17.95;78.69;97871.09;7614768;23;20218;-67
2022/08/02 05:10:57;;;;;;;1.13;1.03;;;;;;;18.00;78.58;97866.06;7614461;23;20679;-67
2022/08/02 05:13:59;;;;;;;1.30;1.20;;;;;;;18.14;78.42;97870.78;7588726;23;20533;-67
2022/08/02 05:17:01;;;;;;;1.43;1.00;;;;;;;18.26;77.39;97869.44;7615840;23;20216;-67
2022/08/02 05:20:04;;;;;;;1.53;1.33;;;;;;;18.56;77.05;97877.78;7613853;23;20216;-67
2022/08/02 05:23:06;;;;;;;1.53;1.43;;;;;;;18.81;75.82;97879.44;7587943;23;20219;-68
2022/08/02 05:26:08;;;;;;;1.20;1.10;;;;;;;19.18;74.32;97876.16;7614456;23;20263;-68
2022/08/02 05:29:11;;;;;;;1.83;1.30;;;;;;;19.46;73.56;97882.78;7615580;23;20594;-67
2022/08/02 05:32:13;;;;;;;1.93;1.47;;;;;;;19.72;71.54;97889.69;7615747;23;20212;-67
2022/08/02 05:35:20;;;;;;;1.70;1.40;;;;;;;19.92;70.70;97882.88;7614042;23;20671;-68
2022/08/02 05:38:22;;;;;;;1.50;1.40;;;;;;;20.09;70.14;97887.13;7614093;23;20212;-68
2022/08/02 05:41:27;;;;;;;2.40;1.57;;;;;;;20.21;69.39;97888.38;7589746;23;20244;-70
2022/08/02 05:44:29;;;;;;;1.60;1.50;;;;;;;20.35;69.26;97888.66;7613732;23;20768;-67
2022/08/02 05:47:31;;;;;;;1.60;1.50;;;;;;;20.43;69.41;97892.09;7613922;23;20263;-68
2022/08/02 05:50:37;;;;;;;1.67;1.47;;;;;;;20.53;69.31;97891.84;7587355;23;20208;-67
2022/08/02 05:53:51;;;;;;;1.57;1.47;;;;;;;20.62;68.20;97898.81;7613645;23;20230;-68
2022/08/02 05:57:04;;;;;;;1.70;1.60;;;;;;;20.67;67.44;97896.41;7614094;23;20232;-67
2022/08/02 06:00:09;;;;;;;2.57;1.70;;;;;;;20.76;67.25;97910.59;7613477;23;20200;-67
2022/08/02 06:03:31;;;;;;;1.60;1.50;;;;;;;20.90;66.93;97901.72;7613487;23;20208;-68
2022/08/02 06:06:34;;;;;;;1.80;1.40;;;;;;;20.99;66.74;97909.50;7614033;23;20224;-69
2022/08/02 06:09:37;;;;;;;1.77;1.50;;;;;;;21.08;66.07;97912.94;7590254;23;20217;-69
2022/08/02 06:12:56;;;;;;;1.60;1.50;;;;;;;21.21;65.95;97907.81;7590683;23;20673;-68
2022/08/02 06:15:59;;;;;;;2.60;1.73;;;;;;;21.15;65.47;97915.75;7615817;23;20296;-68
2022/08/02 06:19:03;;;;;;;1.77;1.60;;;;;;;21.14;65.92;97917.59;7614895;23;20658;-68
2022/08/02 06:22:15;;;;;;;3.03;1.70;;;;;;;21.16;65.67;97918.22;7588962;23;20388;-69
2022/08/02 06:25:41;;;;;;;1.60;1.50;;;;;;;21.14;65.71;97931.03;7615969;23;20216;-68
2022/08/02 06:28:54;;;;;;;2.90;1.60;;;;;;;21.18;65.67;97931.50;7615191;23;20523;-69
2022/08/02 06:31:57;;;;;;;1.57;1.47;;;;;;;21.20;65.53;97930.31;7613807;23;20204;-68
2022/08/02 06:35:00;;;;;;;1.73;1.30;;;;;;;21.24;65.61;97933.47;7617587;23;20691;-68
2022/08/02 06:38:02;;;;;;;1.57;1.47;;;;;;;21.21;65.37;97931.13;7616421;23;20351;-69
2022/08/02 06:41:08;;;;;;;1.63;1.53;;;;;;;21.25;65.81;97943.19;7616661;23;20219;-68
2022/08/02 06:44:12;;;;;;;1.60;1.50;;;;;;;21.23;65.43;97945.22;7616191;23;20287;-68
2022/08/02 06:47:35;;;;;;;1.43;1.33;;;;;;;21.25;65.38;97948.56;7594365;23;20261;-69
2022/08/02 06:50:37;;;;;;;2.40;1.60;;;;;;;21.25;65.28;97952.06;7615768;23;20295;-69
2022/08/02 06:53:40;;;;;;;1.60;1.50;;;;;;;21.29;65.03;97948.00;7618533;23;20511;-68
2022/08/02 06:56:42;;;;;;;1.50;1.40;;;;;;;21.32;65.01;97952.16;7590920;23;20212;-68
2022/08/02 06:59:44;;;;;;;1.40;1.30;;;;;;;21.31;65.22;97959.38;7615700;23;20212;-68
2022/08/02 08:01:58;;;;;;;1.57;1.47;;;;;;;22.14;62.96;97982.44;4397875;23;22269;-69
2022/08/02 08:05:01;;;;;;;1.50;1.40;;;;;;;22.21;62.73;97979.81;7613108;23;20563;-68
2022/08/02 08:08:04;;;;;;;1.50;1.40;;;;;;;22.21;62.84;97987.88;7614303;23;20219;-68
2022/08/02 08:11:07;;;;;;;1.47;1.37;;;;;;;22.20;62.91;97987.06;7613366;23;20287;-69
2022/08/02 08:14:09;;;;;;;2.50;1.50;;;;;;;22.20;62.91;97987.06;7615238;23;20622;-69
2022/08/02 08:17:17;;;;;;;2.63;1.60;;;;;;;22.28;62.81;97986.09;7614167;23;20702;-68
2022/08/02 08:20:19;;;;;;;1.60;1.50;;;;;;;22.28;62.61;97986.94;7612919;23;20204;-68
2022/08/02 08:23:21;;;;;;;1.60;1.50;;;;;;;22.35;62.76;97989.72;7614964;23;20242;-68
2022/08/02 08:26:25;;;;;;;1.40;1.30;;;;;;;22.48;62.73;97983.63;7588691;23;20208;-69
2022/08/02 08:29:27;;;;;;;2.70;1.60;;;;;;;22.60;62.14;97984.78;7614338;23;20676;-69
2022/08/02 08:32:29;;;;;;;1.77;1.67;;;;;;;22.68;62.13;97985.50;7615157;23;20703;-68
2022/08/02 08:35:32;;;;;;;1.83;1.20;;;;;;;22.67;61.06;97985.69;7588080;23;20295;-69
2022/08/02 08:38:35;;;;;;;3.83;1.50;;;;;;;22.77;61.65;97987.06;7617270;23;20673;-68
2022/08/02 08:41:37;;;;;;;1.47;1.37;;;;;;;22.85;60.90;97990.66;7589361;23;20251;-68
2022/08/02 08:44:39;;;;;;;1.50;1.40;;;;;;;22.92;60.95;97989.69;7614235;23;20225;-67
2022/08/02 08:47:50;;;;;;;1.63;1.53;;;;;;;22.94;60.59;97986.81;7621763;23;20776;-68
2022/08/02 08:50:56;;;;;;;3.43;1.50;;;;;;;23.00;60.21;97988.72;7564952;23;20546;-68
2022/08/02 08:54:02;;;;;;;2.50;1.37;;;;;;;23.25;59.83;97998.06;7613778;23;20715;-68
2022/08/02 08:57:05;;;;;;;1.70;1.47;;;;;;;23.49;59.50;97996.75;7614559;23;20197;-67
2022/08/02 09:00:12;;;;;;;1.50;1.40;;;;;;;23.62;59.17;97996.88;7614452;23;20185;-68
2022/08/02 09:03:14;;;;;;;1.67;1.57;;;;;;;23.72;58.30;97999.22;7614245;23;20700;-68
2022/08/02 09:06:16;;;;;;;2.30;1.43;;;;;;;23.85;58.20;98000.16;7614290;23;20215;-68
2022/08/02 09:09:18;;;;;;;1.70;1.40;;;;;;;24.07;57.50;97990.06;7614490;23;20200;-69
2022/08/02 09:12:21;;;;;;;2.20;1.47;;;;;;;24.21;57.25;97994.53;7588368;23;20572;-68
2022/08/02 09:15:24;;;;;;;1.40;1.30;;;;;;;24.34;56.76;97984.81;7614519;23;20212;-68
2022/08/02 09:18:30;;;;;;;1.33;1.33;;;;;;;24.62;56.14;97994.44;7613799;23;20596;-69
2022/08/02 09:21:34;;;;;;;2.57;1.60;;;;;;;24.77;55.76;97994.25;7613218;23;20577;-69
2022/08/02 09:24:47;;;;;;;1.25;1.15;;;;;;;25.18;54.64;97986.00;7614003;23;20212;-68
2022/08/02 09:27:50;;;;;;;1.30;1.20;;;;;;;26.46;51.50;97982.56;7588803;23;20209;-68
2022/08/02 09:30:55;;;;;;;1.55;1.30;;;;;;;27.15;48.86;97975.47;7614820;23;20291;-68
2022/08/02 09:33:59;;;;;;;1.58;1.30;;;;;;;27.17;49.05;97981.47;7564333;23;20212;-68
2022/08/02 09:37:01;;;;;;;1.77;1.20;;;;;;;27.42;48.92;97981.47;7612249;23;20552;-69
2022/08/02 09:40:05;;;;;;;2.22;1.40;;;;;;;27.66;48.10;97983.34;7614122;23;20679;-68
2022/08/02 09:43:08;;;;;;;1.50;1.35;;;;;;;27.69;47.98;97980.19;7615588;23;20212;-68
2022/08/02 09:46:14;;;;;;;1.95;1.20;;;;;;;27.51;48.03;97975.53;7615534;23;20370;-69
2022/08/02 09:49:18;;;;;;;1.40;1.30;;;;;;;27.60;48.58;97978.81;7617370;23;20212;-70
2022/08/02 09:52:28;;;;;;;1.55;1.45;;;;;;;28.21;47.23;97972.53;7616838;23;20231;-69
2022/08/02 09:55:55;;;;;;;0.90;0.90;;;;;;;28.83;44.33;97965.00;7590331;23;20235;-69
2022/08/02 09:58:57;;;;;;;1.33;1.10;;;;;;;29.16;43.56;97959.84;7617230;23;20390;-69
2022/08/02 10:02:01;;;;;;;1.10;1.10;;;;;;;29.50;42.56;97951.97;7615331;23;20212;-70
2022/08/02 10:05:05;;;;;;;1.40;1.30;;;;;;;29.41;42.86;97948.78;7616433;23;20248;-69
2022/08/02 10:08:08;;;;;;;1.25;1.00;;;;;;;29.67;41.73;97947.44;7589855;23;20211;-69
2022/08/02 10:11:11;;;;;;;1.00;1.00;;;;;;;29.81;40.44;97937.16;7589019;23;20291;-68
2022/08/02 10:14:14;;;;;;;1.42;1.00;;;;;;;30.06;40.90;97938.53;7616087;23;20227;-69
2022/08/02 10:17:18;;;;;;;1.27;1.10;;;;;;;30.12;39.98;97941.38;7589785;23;20212;-69
2022/08/02 10:20:21;;;;;;;0.90;0.90;;;;;;;30.12;40.72;97942.19;7615088;23;20223;-69
2022/08/02 10:23:28;;;;;;;0.88;0.88;;;;;;;30.06;39.44;97943.13;7565996;23;20291;-70
2022/08/02 10:26:34;;;;;;;1.00;0.90;;;;;;;30.46;38.53;97943.13;7615499;23;20216;-70
2022/08/02 10:29:37;;;;;;;1.38;0.77;;;;;;;30.94;37.16;97945.41;7589950;23;20209;-69
2022/08/02 10:32:58;;;;;;;0.80;0.80;;;;;;;31.21;37.60;97933.84;7616167;23;20213;-69
2022/08/02 10:36:03;;;;;;;1.40;1.10;;;;;;;31.64;36.39;97938.63;7590140;23;20201;-70
2022/08/02 10:39:09;;;;;;;0.90;0.90;;;;;;;32.00;35.02;97939.91;7615446;23;20197;-69
2022/08/02 10:42:32;;;;;;;2.13;1.00;;;;;;;31.16;36.12;97926.41;7615296;23;20180;-69
2022/08/02 10:45:34;;;;;;;1.23;0.95;;;;;;;29.97;38.03;97930.97;7616445;23;20688;-69
2022/08/02 10:49:03;;;;;;;0.85;0.85;;;;;;;30.40;38.19;97925.84;7614934;23;20208;-68
2022/08/02 10:52:30;;;;;;;0.80;0.80;;;;;;;31.56;36.56;97918.00;7590343;23;20208;-69
2022/08/02 10:55:44;;;;;;;1.27;0.82;;;;;;;32.14;34.61;97928.31;7615711;23;20541;-68
2022/08/02 10:58:46;;;;;;;0.90;0.90;;;;;;;32.12;34.08;97919.59;7616201;23;20236;-69
2022/08/02 11:01:48;;;;;;;0.82;0.82;;;;;;;32.11;34.01;97914.38;7568190;23;20242;-69
2022/08/02 11:04:51;;;;;;;0.68;0.68;;;;;;;32.40;34.31;97915.81;7616137;23;20212;-70
2022/08/02 11:07:53;;;;;;;0.65;0.60;;;;;;;32.80;32.75;97907.22;7616013;23;20213;-68
2022/08/02 11:11:00;;;;;;;0.98;0.90;;;;;;;32.90;32.50;97904.56;7614959;23;20212;-69
2022/08/02 11:14:07;;;;;;;0.70;0.70;;;;;;;32.91;32.23;97899.94;7621418;23;20216;-68
2022/08/02 11:17:15;;;;;;;0.90;0.90;;;;;;;32.57;32.31;97899.31;7616148;23;20217;-69
2022/08/02 11:20:19;;;;;;;0.90;0.70;;;;;;;32.55;32.85;97891.38;7589051;23;20620;-68
2022/08/02 11:23:37;;;;;;;0.80;0.80;;;;;;;32.93;33.23;97895.84;7615329;23;20250;-69
2022/08/02 11:26:46;;;;;;;0.75;0.60;;;;;;;33.32;32.65;97882.75;7591522;23;20209;-69
2022/08/02 11:29:49;;;;;;;0.88;0.70;;;;;;;33.69;31.10;97885.41;7615178;23;20212;-68
2022/08/02 11:32:56;;;;;;;1.58;0.75;;;;;;;33.12;32.17;97889.97;7616986;23;20299;-68
2022/08/02 11:36:04;;;;;;;0.93;0.70;;;;;;;32.83;31.68;97884.84;7616107;23;20220;-69
2022/08/02 11:39:10;;;;;;;0.68;0.65;;;;;;;33.31;31.69;97875.63;7615125;23;20193;-69
2022/08/02 11:42:12;;;;;;;0.70;0.70;;;;;;;33.72;31.44;97873.13;7614914;23;20180;-68
2022/08/02 11:45:16;;;;;;;0.82;0.82;;;;;;;34.32;30.60;97875.28;7589911;23;20210;-69
2022/08/02 11:48:37;;;;;;;1.50;0.80;;;;;;;34.02;29.07;97870.53;7588882;23;20224;-69
2022/08/02 11:51:52;;;;;;;1.23;0.70;;;;;;;34.29;31.25;97867.59;7590209;23;20543;-68
2022/08/02 11:54:55;;;;;;;1.70;0.90;;;;;;;34.63;29.19;97865.19;7615292;23;20339;-70
2022/08/02 11:58:01;;;;;;;0.77;0.77;;;;;;;33.96;29.69;97854.31;7588800;23;20303;-69
2022/08/02 12:01:07;;;;;;;2.67;0.98;;;;;;;33.60;30.96;97861.56;7615057;23;20216;-69
2022/08/02 12:04:09;;;;;;;0.80;0.80;;;;;;;33.84;29.94;97860.03;7615360;23;20295;-68
2022/08/02 12:07:11;;;;;;;1.00;0.90;;;;;;;33.94;29.93;97853.78;7615945;23;20212;-69
2022/08/02 12:10:21;;;;;;;1.10;1.00;;;;;;;33.22;31.51;97851.72;7615797;23;20231;-70
2022/08/02 12:13:23;;;;;;;1.83;1.10;;;;;;;33.37;30.70;97856.50;7614869;23;20273;-69
2022/08/02 12:20:12;;;;;;;0.75;0.75;;;;;;;34.50;27.80;97853.94;7505173;23;20215;-69
2022/08/02 12:23:14;;;;;;;1.90;0.77;;;;;;;34.64;28.04;97855.84;7614646;23;20216;-69
2022/08/02 12:26:16;;;;;;;1.00;0.90;;;;;;;34.96;26.85;97841.88;7614266;23;20208;-69
2022/08/02 12:29:29;;;;;;;1.05;0.90;;;;;;;34.93;26.81;97853.44;7614262;23;20314;-69
2022/08/02 12:32:51;;;;;;;1.02;1.00;;;;;;;32.98;29.33;97854.03;7615827;23;20209;-68
2022/08/02 12:35:53;;;;;;;0.77;0.77;;;;;;;31.99;30.90;97842.69;7588301;23;20212;-68
2022/08/02 12:38:58;;;;;;;0.90;0.90;;;;;;;31.63;32.71;97855.91;7613179;23;20270;-66
2022/08/02 12:42:04;;;;;;;0.70;0.70;;;;;;;32.96;31.77;97843.34;7585011;23;20208;-69
2022/08/02 12:45:11;;;;;;;0.93;0.90;;;;;;;33.25;30.90;97843.00;7564185;23;20209;-69
2022/08/02 12:48:14;;;;;;;0.80;0.80;;;;;;;32.73;31.78;97835.53;7613620;23;20533;-69
2022/08/02 12:51:25;;;;;;;1.10;0.65;;;;;;;32.02;32.71;97832.06;7588103;23;20228;-66
2022/08/02 12:54:48;;;;;;;0.80;0.80;;;;;;;32.89;31.35;97831.00;7587152;23;20208;-68
2022/08/02 12:57:52;;;;;;;0.90;0.90;;;;;;;32.93;30.89;97832.94;7614065;23;20525;-68
2022/08/02 13:00:59;;;;;;;0.93;0.93;;;;;;;32.84;31.34;97831.75;7614031;23;20246;-68
2022/08/02 13:04:02;;;;;;;1.27;1.02;;;;;;;33.48;31.21;97848.06;7613411;23;20213;-68
2022/08/02 13:07:14;;;;;;;1.75;0.93;;;;;;;34.00;30.67;97833.53;7586341;23;20208;-68
2022/08/02 13:10:17;;;;;;;1.25;1.00;;;;;;;34.55;29.27;97838.28;7614325;23;20223;-69
2022/08/02 13:13:19;;;;;;;1.00;0.90;;;;;;;34.30;29.18;97839.09;7587815;23;20220;-69
2022/08/02 13:16:23;;;;;;;1.02;0.90;;;;;;;34.69;28.75;97836.66;7588683;23;20208;-68
2022/08/02 13:19:32;;;;;;;1.17;0.90;;;;;;;35.58;28.54;97837.91;7612835;23;20305;-68
2022/08/02 13:22:35;;;;;;;1.92;1.00;;;;;;;34.72;30.02;97833.38;7612106;23;20216;-69
2022/08/02 13:25:43;;;;;;;2.45;0.93;;;;;;;33.28;31.32;97821.44;7586679;23;20299;-68
2022/08/02 13:28:53;;;;;;;2.88;1.13;;;;;;;33.09;32.18;97824.84;7592208;23;20232;-69
2022/08/02 13:31:55;;;;;;;2.08;1.10;;;;;;;32.99;31.42;97834.63;7614308;23;20212;-68
2022/08/02 13:34:58;;;;;;;1.40;1.30;;;;;;;32.57;32.12;97826.34;7587813;23;20212;-69
2022/08/02 13:38:03;;;;;;;1.20;1.08;;;;;;;32.63;32.12;97813.56;7588015;23;20538;-70
2022/08/02 13:41:07;;;;;;;1.88;1.00;;;;;;;33.17;31.27;97822.41;7587443;23;20526;-68
2022/08/02 13:44:10;;;;;;;1.17;1.05;;;;;;;32.77;31.14;97824.88;7587687;23;20223;-69
2022/08/02 13:47:12;;;;;;;1.00;0.90;;;;;;;33.76;29.14;97813.16;7613291;23;20568;-69
2022/08/02 13:50:15;;;;;;;1.02;0.80;;;;;;;33.78;28.51;97813.72;7612538;23;20208;-68
2022/08/02 13:53:17;;;;;;;1.27;0.73;;;;;;;33.71;28.34;97814.78;7588719;23;20675;-69
2022/08/02 13:56:19;;;;;;;0.80;0.80;;;;;;;33.27;29.27;97818.94;7613609;23;20223;-68
2022/08/02 13:59:37;;;;;;;5.30;1.00;;;;;;;33.41;29.15;97814.66;7613522;23;20208;-67
2022/08/02 14:02:59;;;;;;;2.03;1.00;;;;;;;34.53;27.69;97818.56;7611465;23;20693;-68
2022/08/02 14:06:02;;;;;;;0.77;0.77;;;;;;;36.23;24.79;97805.78;7613640;23;20738;-68
2022/08/02 14:09:04;;;;;;;3.00;0.88;;;;;;;37.78;22.63;97812.00;7587987;23;20188;-68
2022/08/02 14:12:08;;;;;;;1.00;0.90;;;;;;;39.60;21.10;97807.41;7588460;23;20176;-67
2022/08/02 14:15:10;;;;;;;1.20;1.15;;;;;;;40.29;20.50;97810.91;7614257;23;20188;-69
2022/08/02 14:18:14;;;;;;;2.38;1.10;;;;;;;41.73;18.94;97802.19;7588580;23;20181;-70
2022/08/02 14:21:16;;;;;;;2.85;0.90;;;;;;;42.77;17.67;97797.53;7613265;23;20181;-69
2022/08/02 14:24:20;;;;;;;0.80;0.80;;;;;;;43.02;17.06;97797.50;7585937;23;20643;-69
2022/08/02 14:27:22;;;;;;;0.75;0.68;;;;;;;44.13;15.98;97794.50;7588298;23;20208;-69
2022/08/02 14:30:25;;;;;;;2.88;1.02;;;;;;;44.53;15.23;97792.06;7615097;23;20208;-69
2022/08/02 14:33:27;;;;;;;1.95;0.93;;;;;;;45.68;14.99;97784.56;7616564;23;20208;-70
2022/08/02 14:36:29;;;;;;;1.63;0.93;;;;;;;46.46;13.94;97778.59;7590528;23;20271;-69
2022/08/02 14:39:31;;;;;;;0.90;0.90;;;;;;;46.23;13.90;97774.69;7590551;23;20287;-69
2022/08/02 14:42:53;;;;;;;1.73;1.02;;;;;;;46.34;13.98;97769.47;7615075;23;20207;-68
2022/08/02 14:45:55;;;;;;;2.25;0.95;;;;;;;47.09;13.84;97777.97;7615081;23;20213;-70
2022/08/02 14:49:00;;;;;;;2.13;1.00;;;;;;;47.56;12.66;97772.38;7624011;23;20659;-69
2022/08/02 14:52:03;;;;;;;1.13;1.02;;;;;;;47.73;12.06;97774.81;7589964;23;20612;-69
2022/08/02 14:55:06;;;;;;;3.10;0.73;;;;;;;47.67;12.45;97765.06;7565161;23;20212;-70
2022/08/02 14:58:09;;;;;;;0.70;0.70;;;;;;;48.04;12.12;97771.94;7613952;23;20496;-69
2022/08/02 15:01:12;;;;;;;0.90;0.90;;;;;;;47.72;12.35;97765.59;7614634;23;20218;-70
2022/08/02 15:04:15;;;;;;;2.05;1.13;;;;;;;46.85;13.28;97762.13;7590460;23;20684;-69
2022/08/02 15:07:17;;;;;;;1.13;0.90;;;;;;;47.75;12.35;97758.47;7565150;23;20235;-69
2022/08/02 15:10:19;;;;;;;1.52;0.80;;;;;;;48.25;11.98;97766.00;7615584;23;20681;-70
2022/08/02 15:13:21;;;;;;;0.75;0.75;;;;;;;48.41;12.16;97768.75;7614633;23;20260;-70
2022/08/02 15:16:25;;;;;;;1.75;1.10;;;;;;;47.70;11.94;97759.56;7616167;23;20331;-69
2022/08/02 15:19:47;;;;;;;1.23;0.70;;;;;;;48.08;12.67;97763.66;7614670;23;20659;-69
2022/08/02 15:23:02;;;;;;;0.88;0.82;;;;;;;48.40;12.37;97762.34;7616275;23;20515;-70
2022/08/02 15:26:05;;;;;;;1.50;0.90;;;;;;;45.71;14.19;97755.97;7588012;23;20212;-70
2022/08/02 15:29:07;;;;;;;0.80;0.80;;;;;;;45.91;13.89;97751.44;7614493;23;20517;-69
2022/08/02 15:32:09;;;;;;;0.80;0.80;;;;;;;46.44;13.63;97752.19;7615437;23;20209;-68
2022/08/02 15:35:12;;;;;;;3.30;0.82;;;;;;;44.35;16.05;97749.66;7588665;23;20209;-68
2022/08/02 15:38:15;;;;;;;1.00;0.90;;;;;;;44.85;14.96;97743.09;7616453;23;20424;-68
2022/08/02 15:41:17;;;;;;;2.25;0.90;;;;;;;44.90;15.04;97751.25;7614490;23;20672;-69